Flight Track Log - Related Links

Times and Time Zones

All times are in EDT time to prevent confusion due to time zone crossing. See the EJA951 flight status page for this flight to view local times or setup timezone preferences in your user account.

Time Position Orientation Groundspeed Altitude Reporting Facility
EDT Latitude Longitude Course Direction KTS MPH feet Rate Location/Type
Thu 09:29:17 AM 40.7833 -74.1833 180° South 192 221 3,300  Level New York TRACON
Thu 09:30:17 AM 40.7333 -74.2167 207° Southwest 244 281 7,200 4,600 Climbing New York TRACON
Thu 09:31:17 AM 40.6667 -74.2333 191° South 240 276 12,500 4,600 Climbing New York TRACON
Thu 09:32:17 AM 40.6167 -74.3000 225° Southwest 246 283 16,400 2,300 Climbing New York TRACON
Thu 09:33:00 AM 40.2032 -74.1833 180° South  Level FlightAware Approximate
Thu 09:33:17 AM 40.5500 -74.2667 159° South 323 372 17,100  Level New York TRACON
Thu 09:34:00 AM 40.0883 -74.2167 180° South  Level FlightAware Approximate
Thu 09:35:14 AM 40.4006 -74.1531 150° Southeast 313 360 17,100  Level New York Center
Thu 09:36:14 AM 40.3086 -74.1706 188° South 311 358 17,000 -50 Descending New York Center
Thu 09:37:14 AM 40.2056 -74.2006 193° South 361 415 17,000 750 Level New York Center
Thu 09:38:14 AM 40.1047 -74.2283 192° South 383 441 18,500 1,900 Climbing New York Center
Thu 09:39:14 AM 40.0058 -74.2586 193° South 374 430 20,800 2,730 Climbing New York Center
Thu 09:41:34 AM 39.8472 -74.4078 216° Southwest 324 373 27,600 2,864 Climbing Washington Center
Thu 09:42:33 AM 39.7772 -74.4900 222° Southwest 324 373 30,300 2,067 Climbing Washington Center
Thu 09:43:33 AM 39.7194 -74.5636 224° Southwest 324 373 31,700 1,311 Climbing Washington Center
Thu 09:44:32 AM 39.6433 -74.6672 226° Southwest 342 394 32,900 1,587 Climbing Washington Center
Thu 09:45:34 AM 39.5814 -74.7514 226° Southwest 359 413 34,900 1,700 Climbing Washington Center
Thu 09:46:32 AM 39.5364 -74.8786 245° Southwest 359 413 36,300 1,169 Climbing Washington Center
Thu 09:47:32 AM 39.4514 -74.9492 213° Southwest 359 413 37,200 843 Climbing Washington Center
Thu 09:48:33 AM 39.3475 -74.9986 200° South 380 437 38,000 492 Climbing Washington Center
Thu 09:49:34 AM 39.2414 -75.0556 203° Southwest 405 466 38,200 397 Climbing Washington Center
Thu 09:50:34 AM 39.1333 -75.1125 202° Southwest 423 487 38,800 513 Climbing Washington Center
Thu 09:51:31 AM 39.0167 -75.1722 202° Southwest 437 503 39,200 458 Climbing Washington Center
Thu 09:52:32 AM 38.9044 -75.2289 201° Southwest 437 503 39,700 393 Climbing Washington Center
Thu 09:53:33 AM 38.7942 -75.2828 201° Southwest 432 497 40,000 148 Climbing Washington Center
Thu 09:54:34 AM 38.6900 -75.3389 203° Southwest 425 489 40,000  Level Washington Center
Thu 09:55:34 AM 38.5919 -75.3897 202° Southwest 434 499 40,000  Level Washington Center
Thu 09:56:31 AM 38.4669 -75.4486 200° South 434 499 40,000  Level Washington Center
Thu 09:57:32 AM 38.3544 -75.5044 201° Southwest 434 499 40,000  Level Washington Center
Thu 09:58:32 AM 38.2481 -75.5733 207° Southwest 434 499 40,000  Level Washington Center
Thu 09:59:34 AM 38.1356 -75.6419 206° Southwest 440 506 40,000  Level Washington Center
Thu 10:00:32 AM 38.0189 -75.7183 207° Southwest 440 506 40,000  Level Washington Center
Thu 10:01:32 AM 37.9144 -75.7864 207° Southwest 435 501 40,000  Level Washington Center
Thu 10:02:32 AM 37.8142 -75.8414 203° Southwest 430 495 40,000  Level Washington Center
Thu 10:03:33 AM 37.6992 -75.9172 208° Southwest 425 489 40,000  Level Washington Center
Thu 10:04:33 AM 37.5906 -75.9850 206° Southwest 430 495 40,000  Level Washington Center
Thu 10:05:34 AM 37.4819 -76.0497 205° Southwest 430 495 40,000  Level Washington Center
Thu 10:06:32 AM 37.3775 -76.1172 207° Southwest 430 495 40,000  Level Washington Center
Thu 10:07:33 AM 37.2750 -76.1714 203° Southwest 435 501 40,000  Level Washington Center
Thu 10:08:34 AM 37.1642 -76.2381 206° Southwest 440 506 40,000  Level Washington Center
Thu 10:09:31 AM 37.0572 -76.3025 206° Southwest 445 512 40,000  Level Washington Center
Thu 10:10:32 AM 36.9483 -76.3689 206° Southwest 445 512 40,000  Level Washington Center
Thu 10:11:33 AM 36.8375 -76.4328 205° Southwest 445 512 40,000  Level Washington Center
Thu 10:12:34 AM 36.7264 -76.4989 205° Southwest 445 512 40,000  Level Washington Center
Thu 10:13:32 AM 36.6092 -76.5544 201° Southwest 451 519 40,000  Level Washington Center
Thu 10:14:33 AM 36.4939 -76.6072 200° South 451 519 40,000  Level Washington Center
Thu 10:15:34 AM 36.3767 -76.6575 199° South 451 519 40,000  Level Washington Center
Thu 10:16:34 AM 36.2550 -76.7125 200° South 451 519 40,000  Level Washington Center
Thu 10:17:32 AM 36.1378 -76.7647 200° South 451 519 40,000  Level Washington Center
Thu 10:18:33 AM 36.0206 -76.8169 200° South 451 519 40,000  Level Washington Center
Thu 10:19:34 AM 35.9053 -76.8664 199° South 451 519 40,000  Level Washington Center
Thu 10:20:32 AM 35.7856 -76.9208 200° South 451 519 40,000  Level Washington Center
Thu 10:21:32 AM 35.6722 -76.9753 201° Southwest 451 519 40,000  Level Washington Center
Thu 10:22:34 AM 35.5422 -77.0292 199° South 451 519 40,000  Level Washington Center
Thu 10:23:34 AM 35.4269 -77.0781 199° South 451 519 40,000  Level Washington Center
Thu 10:24:32 AM 35.3117 -77.1294 200° South 451 519 40,000  Level Washington Center
Thu 10:25:33 AM 35.1961 -77.1806 200° South 451 519 40,000  Level Washington Center
Thu 10:26:34 AM 35.0786 -77.2317 200° South 444 511 40,000  Level Washington Center
Thu 10:27:32 AM 34.9631 -77.2825 200° South 444 511 40,000  Level Washington Center
Thu 10:28:33 AM 34.8478 -77.3333 200° South 449 517 40,000  Level Washington Center
Thu 10:29:34 AM 34.7342 -77.3839 200° South 449 517 40,000  Level Washington Center
Thu 10:30:34 AM 34.6167 -77.4317 199° South 449 517 40,000  Level Washington Center
Thu 10:31:32 AM 34.4992 -77.4769 198° South 449 517 40,000  Level Washington Center
Thu 10:32:33 AM 34.3756 -77.5169 195° South 449 517 40,000  Level Washington Center
Thu 10:36:02 AM 33.9569 -77.6500 195° South 465 535 40,000  Level Jacksonville Center
Thu 10:37:02 AM 33.8356 -77.6872 194° South 465 535 40,000  Level Jacksonville Center
Thu 10:38:02 AM 33.7139 -77.7269 195° South 465 535 40,000  Level Jacksonville Center
Thu 10:39:02 AM 33.5925 -77.7664 195° South 465 535 40,000  Level Jacksonville Center
Thu 10:40:02 AM 33.4731 -77.8058 195° South 459 528 40,000  Level Jacksonville Center
Thu 10:41:03 AM 33.3494 -77.8428 194° South 459 528 40,000  Level Jacksonville Center
Thu 10:42:02 AM 33.2297 -77.8792 194° South 453 521 40,000  Level Jacksonville Center
Thu 10:43:02 AM 33.1083 -77.9208 196° South 453 521 40,000  Level Jacksonville Center
Thu 10:44:02 AM 32.9844 -77.9575 194° South 453 521 40,000  Level Jacksonville Center
Thu 10:45:02 AM 32.8650 -77.9936 194° South 453 521 40,000  Level Jacksonville Center
Thu 10:46:02 AM 32.7433 -78.0347 196° South 453 521 40,000  Level Jacksonville Center
Thu 10:47:02 AM 32.6239 -78.0733 195° South 453 521 40,000  Level Jacksonville Center
Thu 10:48:02 AM 32.5000 -78.1094 194° South 453 521 40,000  Level Jacksonville Center
Thu 10:49:02 AM 32.3783 -78.1478 195° South 453 521 40,000  Level Jacksonville Center
Thu 10:50:02 AM 32.2544 -78.1836 194° South 453 521 40,000  Level Jacksonville Center
Thu 10:51:02 AM 32.1325 -78.2217 195° South 453 521 40,000  Level Jacksonville Center
Thu 10:52:02 AM 31.9986 -78.2653 195° South 458 527 40,000  Level Jacksonville Center
Thu 10:53:02 AM 31.8747 -78.3058 196° South 458 527 40,000  Level Jacksonville Center
Thu 10:54:02 AM 31.7550 -78.3436 195° South 451 519 40,000 250 Level Jacksonville Center
Thu 10:55:02 AM 31.6333 -78.3811 195° South 451 519 40,500 450 Climbing Jacksonville Center
Thu 10:56:02 AM 31.5136 -78.4186 195° South 451 519 40,900 250 Climbing Jacksonville Center
Thu 10:57:02 AM 31.3897 -78.4611 196° South 452 520 41,000 50 Climbing Jacksonville Center
Thu 10:58:02 AM 31.2658 -78.4986 195° South 446 513 41,000  Level Jacksonville Center
Thu 10:59:02 AM 31.1419 -78.5383 195° South 470 541 41,000  Level Jacksonville Center
Thu 11:00:02 AM 31.0158 -78.5781 195° South 470 541 41,000  Level Jacksonville Center
Thu 11:01:02 AM 30.9022 -78.6122 194° South 470 541 41,000  Level Jacksonville Center
Thu 11:02:02 AM 30.7783 -78.6494 194° South 470 541 41,000  Level Jacksonville Center
Thu 11:03:02 AM 30.6500 -78.6842 193° South 472 543 41,000  Level Jacksonville Center
Thu 11:03:43 AM 30.5581 -78.7100 194° South 470 541 41,000  Level Miami Center
Thu 11:04:43 AM 30.4325 -78.7414 192° South 459 528 41,000  Level Miami Center
Thu 11:05:43 AM 30.3008 -78.7728 192° South 464 534 41,000  Level Miami Center
Thu 11:06:43 AM 30.1753 -78.8064 193° South 472 543 41,000  Level Miami Center
Thu 11:07:43 AM 30.0414 -78.8378 191° South 471 542 41,000  Level Miami Center
Thu 11:08:43 AM 29.9158 -78.8761 195° South 476 548 41,000  Level Miami Center
Thu 11:09:43 AM 29.7800 -78.9044 190° South 477 549 41,000  Level Miami Center
Thu 11:10:43 AM 29.6794 -78.9289 192° South 483 556 41,000  Level Miami Center
Thu 11:11:44 AM 29.5203 -78.9664 192° South 483 556 41,000  Level Miami Center
Thu 11:12:43 AM 29.3906 -79.0019 193° South 483 556 41,000  Level Miami Center
Thu 11:13:43 AM 29.2586 -79.0303 191° South 493 567 41,000 -900 Level Miami Center
Thu 11:14:43 AM 29.1228 -79.0586 190° South 486 559 39,200 -1,850 Descending Miami Center
Thu 11:15:43 AM 28.9950 -79.0942 194° South 486 559 37,300 -1,950 Descending Miami Center
Thu 11:16:43 AM 28.8608 -79.1244 191° South 492 566 35,300 -1,950 Descending Miami Center
Thu 11:17:43 AM 28.7247 -79.1597 193° South 492 566 33,400 -1,983 Descending Miami Center
Thu 11:18:44 AM 28.5803 -79.1897 190° South 505 581 31,300 -2,100 Descending Miami Center
Thu 11:19:43 AM 28.4397 -79.2244 192° South 511 588 29,200 -2,067 Descending Miami Center
Thu 11:20:43 AM 28.3014 -79.2547 191° South 516 594 27,200 -1,950 Descending Miami Center
Thu 11:21:43 AM 28.1694 -79.2872 192° South 505 581 25,300 -1,100 Descending Miami Center
Thu 11:22:43 AM 28.0458 -79.3175 192° South 481 554 25,000 -300 Descending Miami Center
Thu 11:23:43 AM 27.9200 -79.3406 189° South 468 539 24,700 -450 Descending Miami Center
Thu 11:24:43 AM 27.7967 -79.3614 188° South 468 539 24,100 -595 Descending Miami Center
Thu 11:25:44 AM 27.6728 -79.3917 192° South 463 533 23,500 -1,450 Descending Miami Center
Thu 11:26:43 AM 27.5839 -79.4622 215° Southwest 421 484 21,200 -2,319 Descending Miami Center
Thu 11:27:43 AM 27.5181 -79.5264 221° Southwest 375 432 18,900 -2,250 Descending Miami Center
Thu 11:28:43 AM 27.4372 -79.6017 220° Southwest 368 423 16,700 -2,400 Descending Miami Center
Thu 11:29:43 AM 27.3500 -79.6839 220° Southwest 373 429 14,100 -2,450 Descending Miami Center
Thu 11:30:43 AM 27.2756 -79.7519 219° Southwest 359 413 11,800 -2,200 Descending Miami Center
Thu 11:31:43 AM 27.2097 -79.8136 220° Southwest 334 384 9,700 -1,850 Descending Miami Center
Thu 11:32:43 AM 27.1544 -79.8633 219° Southwest 304 350 8,100 -1,200 Descending Miami Center
Thu 11:33:43 AM 27.0908 -79.9039 210° Southwest 279 321 7,300 -1,450 Descending Miami Center
Thu 11:34:43 AM 27.0211 -79.9461 208° Southwest 267 307 5,200 -1,150 Descending Miami Center
Thu 11:35:43 AM 26.9556 -79.9817 206° Southwest 267 307 5,000 -100 Descending Miami Center
Thu 11:36:43 AM 26.8981 -80.0314 218° Southwest 267 307 5,000  Level Miami Center
Thu 11:37:43 AM 26.8450 -80.0742 216° Southwest 262 302 5,000  Level Miami Center
Thu 11:38:43 AM 26.7717 -80.0886 190° South 257 296 5,000  Level Miami Center
Thu 11:39:44 AM 26.6981 -80.1028 190° South 262 302 5,000 -804 Level Miami Center
Thu 11:42:27 AM 26.5094 -80.1369 180° South 267 307 2,000 -849 Descending Miami Center
Thu 11:43:23 AM 26.4569 -80.1494 192° South 192 221 1,900  Descending Miami Center
Thu 11:44:24 AM 26.4142 -80.1947 223° Southwest 182 209 2,000 -207 Climbing Miami Center
Thu 11:45:19 AM 26.3703 -80.1889 173° South 188 216 1,500 -621 Descending Miami Center
Thu 11:46:20 AM 26.3481 -80.1536 125° Southeast 136 157 800 -689 Descending Miami Center
Thu 11:48:00 AM 26.3667 -80.1000 180° South  Level FlightAware Approximate
Thu 11:55:00 AM 26.3785 -80.1077 180° South  Level Estimated

Login

Don't have an account? Register now (free) for customized features, flight alerts, and more!